createdAt,value
2022-11-24T00:01:21.675Z,6.99
2022-11-24T00:04:29.639Z,6.99
2022-11-24T00:07:39.627Z,7.00
2022-11-24T00:10:47.640Z,6.98
2022-11-24T00:13:57.886Z,6.90
2022-11-24T00:17:12.695Z,6.92
2022-11-24T00:20:21.680Z,6.88
2022-11-24T00:23:36.682Z,6.87
2022-11-24T00:26:44.707Z,6.88
2022-11-24T00:29:53.305Z,6.78
2022-11-24T00:33:01.689Z,6.69
2022-11-24T00:43:39.657Z,6.67
2022-11-24T00:46:54.723Z,6.77
2022-11-24T00:50:03.702Z,6.73
2022-11-24T00:53:18.699Z,6.74
2022-11-24T00:56:26.722Z,6.76
2022-11-24T00:59:38.315Z,6.73
2022-11-24T01:02:46.736Z,6.69
2022-11-24T01:06:20.688Z,6.61
2022-11-24T01:09:29.638Z,6.71
2022-11-24T01:12:38.271Z,6.68
2022-11-24T01:15:46.712Z,6.74
2022-11-24T01:19:02.720Z,6.77
2022-11-24T01:22:11.754Z,6.77
2022-11-24T01:25:26.662Z,6.81
2022-11-24T01:28:47.174Z,6.82
2022-11-24T01:31:56.385Z,6.78
2022-11-24T01:35:04.689Z,6.80
2022-11-24T01:38:19.719Z,6.76
2022-11-24T01:41:30.667Z,6.90
2022-11-24T01:44:47.686Z,6.87
2022-11-24T01:47:55.718Z,6.93
2022-11-24T01:51:17.674Z,6.82
2022-11-24T01:54:26.768Z,6.78
2022-11-24T01:57:47.701Z,6.75
2022-11-24T02:00:50.961Z,6.72
2022-11-24T02:04:07.714Z,6.80
2022-11-24T02:07:12.454Z,6.77
2022-11-24T02:10:28.686Z,6.82
2022-11-24T02:13:37.698Z,6.79
2022-11-24T02:16:55.713Z,6.82
2022-11-24T02:20:07.707Z,6.83
2022-11-24T02:23:37.464Z,6.85
2022-11-24T02:26:52.714Z,6.84
2022-11-24T02:30:01.395Z,6.78
2022-11-24T02:33:18.701Z,6.69
2022-11-24T02:36:33.720Z,6.72
2022-11-24T02:39:48.698Z,6.61
2022-11-24T02:42:54.358Z,6.67
2022-11-24T02:46:08.754Z,6.57
2022-11-24T02:49:16.706Z,6.62
2022-11-24T02:52:32.736Z,6.58
2022-11-24T02:55:34.492Z,6.63
2022-11-24T02:58:48.773Z,6.72
2022-11-24T03:01:51.021Z,6.68
2022-11-24T03:05:05.716Z,6.70
2022-11-24T03:08:13.745Z,6.58
2022-11-24T03:11:28.731Z,6.51
2022-11-24T03:14:39.243Z,6.33
2022-11-24T03:17:48.690Z,6.36
2022-11-24T03:20:57.723Z,6.19
2022-11-24T03:24:06.340Z,6.27
2022-11-24T03:27:14.771Z,6.26
2022-11-24T03:30:29.784Z,6.36
2022-11-24T03:33:31.584Z,6.28
2022-11-24T03:36:46.759Z,6.20
2022-11-24T03:39:55.737Z,6.20
2022-11-24T03:43:04.453Z,6.29
2022-11-24T03:46:12.769Z,6.19
2022-11-24T03:49:27.774Z,6.17
2022-11-24T03:52:30.686Z,6.28
2022-11-24T03:55:45.742Z,6.17
2022-11-24T03:58:47.556Z,6.20
2022-11-24T04:02:02.830Z,6.20
2022-11-24T04:05:18.763Z,6.15
2022-11-24T04:08:27.286Z,6.21
2022-11-24T04:11:35.758Z,6.26
2022-11-24T04:14:50.751Z,6.28
2022-11-24T04:18:01.728Z,6.29
2022-11-24T04:21:10.313Z,6.19
2022-11-24T04:24:21.782Z,6.13
2022-11-24T04:27:38.734Z,6.11
2022-11-24T04:30:47.832Z,6.15
2022-11-24T04:33:56.441Z,6.15
2022-11-24T04:37:04.739Z,6.16
2022-11-24T04:40:13.522Z,6.15
2022-11-24T04:43:21.798Z,6.18
2022-11-24T04:46:36.864Z,6.14
2022-11-24T04:49:47.734Z,6.00
2022-11-24T04:53:02.799Z,6.02
2022-11-24T04:56:06.117Z,6.08
2022-11-24T04:59:20.774Z,6.03
2022-11-24T05:02:29.485Z,6.09
2022-11-24T05:05:44.826Z,6.14
2022-11-24T05:08:53.383Z,6.01
2022-11-24T05:12:01.780Z,6.03
2022-11-24T05:15:10.706Z,5.92
2022-11-24T05:18:20.829Z,5.81
2022-11-24T05:21:35.805Z,5.78
2022-11-24T05:24:50.813Z,5.76
2022-11-24T05:28:01.499Z,5.65
2022-11-24T05:31:10.864Z,5.70
2022-11-24T05:34:19.434Z,5.85
2022-11-24T05:37:27.866Z,5.78
2022-11-24T05:40:43.837Z,5.70
2022-11-24T05:43:51.848Z,5.73
2022-11-24T05:47:06.841Z,5.74
2022-11-24T05:50:18.491Z,5.75
2022-11-24T05:53:26.798Z,5.77
2022-11-24T05:56:35.415Z,5.82
2022-11-24T05:59:43.787Z,5.79
2022-11-24T06:02:52.634Z,5.89
2022-11-24T06:06:07.785Z,5.92
2022-11-24T06:09:16.626Z,6.03
2022-11-24T06:12:31.817Z,6.06
2022-11-24T06:15:40.401Z,6.06
2022-11-24T06:18:48.815Z,6.08
2022-11-24T06:21:57.593Z,6.09
2022-11-24T06:25:05.810Z,6.10
2022-11-24T06:28:20.879Z,6.17
2022-11-24T06:31:22.749Z,6.27
2022-11-24T06:34:37.822Z,6.27
2022-11-24T06:37:46.388Z,6.35
2022-11-24T06:40:54.898Z,6.44
2022-11-24T06:44:10.890Z,6.42
2022-11-24T06:47:25.798Z,6.33
2022-11-24T06:50:33.968Z,6.28
2022-11-24T06:53:48.846Z,6.28
2022-11-24T06:56:56.344Z,6.38
2022-11-24T07:00:12.858Z,6.17
2022-11-24T07:03:35.197Z,6.16
2022-11-24T07:06:50.851Z,6.12
2022-11-24T07:10:05.902Z,6.10
2022-11-24T07:13:14.410Z,6.27
2022-11-24T07:16:25.935Z,6.39
2022-11-24T07:19:40.864Z,6.42
2022-11-24T07:22:49.802Z,6.43
2022-11-24T07:26:01.211Z,6.40
2022-11-24T07:29:20.847Z,6.39
2022-11-24T07:32:28.843Z,6.48
2022-11-24T07:35:43.876Z,6.50
2022-11-24T07:38:52.921Z,6.56
2022-11-24T07:42:01.729Z,6.73
2022-11-24T07:45:09.957Z,6.80
2022-11-24T07:48:18.428Z,6.77
2022-11-24T07:51:26.878Z,6.80
2022-11-24T07:54:41.839Z,6.94
2022-11-24T07:57:49.867Z,6.82
2022-11-24T08:01:05.967Z,6.99
2022-11-24T08:04:08.240Z,8.67
2022-11-24T08:07:29.928Z,9.78
2022-11-24T08:10:32.197Z,9.87
2022-11-24T08:13:47.905Z,10.87
2022-11-24T08:16:55.968Z,11.41
2022-11-24T08:20:05.174Z,11.59
2022-11-24T08:23:13.910Z,12.54
2022-11-24T08:26:29.844Z,12.96
2022-11-24T08:29:37.882Z,12.04
2022-11-24T08:32:52.927Z,12.24
2022-11-24T08:35:58.143Z,12.16
2022-11-24T08:39:13.014Z,13.04
2022-11-24T08:42:21.626Z,13.47
2022-11-24T08:45:41.418Z,12.37
2022-11-24T08:48:53.446Z,13.09
2022-11-24T08:52:04.935Z,12.24
2022-11-24T08:55:13.582Z,11.84
2022-11-24T08:58:21.918Z,12.74
2022-11-24T09:01:38.068Z,12.56
2022-11-24T09:04:52.976Z,12.29
2022-11-24T09:08:04.678Z,11.98
2022-11-24T09:11:16.926Z,12.43
2022-11-24T09:14:25.752Z,12.77
2022-11-24T09:17:33.899Z,12.63
2022-11-24T09:20:42.845Z,11.89
2022-11-24T09:23:54.141Z,12.86
2022-11-24T09:27:02.501Z,12.47
2022-11-24T09:30:11.172Z,12.64
2022-11-24T09:33:20.742Z,12.66
2022-11-24T09:36:35.920Z,11.38
2022-11-24T09:39:44.626Z,10.84
2022-11-24T09:43:10.115Z,9.97
2022-11-24T09:46:39.032Z,9.44
2022-11-24T09:50:06.011Z,10.59
2022-11-24T09:53:36.009Z,11.18
2022-11-24T09:57:06.131Z,9.92
2022-11-24T10:00:22.000Z,9.40
2022-11-24T10:03:46.165Z,10.20
2022-11-24T10:07:29.245Z,12.16
2022-11-24T10:10:49.884Z,10.32
2022-11-24T10:14:29.920Z,10.23
2022-11-24T10:17:56.960Z,10.21
2022-11-24T10:21:31.894Z,10.69
2022-11-24T10:25:05.007Z,10.81
2022-11-24T10:28:13.290Z,10.85
2022-11-24T10:31:42.975Z,11.67
2022-11-24T10:34:53.882Z,11.08
2022-11-24T10:38:30.521Z,11.16
2022-11-24T10:41:57.929Z,11.82
2022-11-24T10:45:14.545Z,10.13
2022-11-24T10:48:31.963Z,9.03
2022-11-24T10:52:06.003Z,8.38
2022-11-24T10:55:15.994Z,7.72
2022-11-24T10:58:31.552Z,7.81
2022-11-24T11:01:43.045Z,9.95
2022-11-24T11:05:25.994Z,10.50
2022-11-24T11:08:34.679Z,10.58
2022-11-24T11:11:49.202Z,11.10
2022-11-24T11:14:51.327Z,11.12
2022-11-24T11:18:08.991Z,11.89
2022-11-24T11:21:37.920Z,11.44
2022-11-24T11:24:49.042Z,11.10
2022-11-24T11:28:18.703Z,11.21
2022-11-24T11:31:28.453Z,10.57
2022-11-24T11:34:37.172Z,11.97
2022-11-24T11:37:46.034Z,10.39
2022-11-24T11:41:00.966Z,10.64
2022-11-24T11:44:34.343Z,10.32
2022-11-24T11:48:09.232Z,10.93
2022-11-24T11:51:38.089Z,10.76
2022-11-24T11:55:21.035Z,10.49
2022-11-24T11:58:46.687Z,10.20
2022-11-24T12:02:20.180Z,10.21
2022-11-24T12:05:54.028Z,10.35
2022-11-24T12:09:22.114Z,10.66
2022-11-24T12:13:10.003Z,10.73
2022-11-24T12:16:35.084Z,12.07
2022-11-24T12:20:02.017Z,12.01
2022-11-24T12:23:37.998Z,11.79
2022-11-24T12:27:00.151Z,12.46
2022-11-24T12:30:20.114Z,13.35
2022-11-24T12:33:52.327Z,13.82
2022-11-24T12:37:19.766Z,12.30
2022-11-24T12:40:55.230Z,12.44
2022-11-24T12:44:48.983Z,12.79
2022-11-24T12:48:21.985Z,12.16
2022-11-24T12:51:31.317Z,12.26
2022-11-24T12:54:50.075Z,12.80
2022-11-24T12:58:10.641Z,11.77
2022-11-24T13:01:48.368Z,12.31
2022-11-24T13:05:08.136Z,12.62
2022-11-24T13:08:17.432Z,12.94
2022-11-24T13:11:41.134Z,12.98
2022-11-24T13:14:57.012Z,13.80
2022-11-24T13:18:07.185Z,14.35
2022-11-24T13:21:38.062Z,14.39
2022-11-24T13:25:19.031Z,12.29
2022-11-24T13:29:01.881Z,12.80
2022-11-24T13:32:58.078Z,12.68
2022-11-24T13:36:38.116Z,13.10
2022-11-24T13:39:58.129Z,13.06
2022-11-24T13:43:20.435Z,13.62
2022-11-24T13:46:58.676Z,11.86
2022-11-24T13:50:17.086Z,12.42
2022-11-24T13:53:42.078Z,13.52
2022-11-24T13:56:43.832Z,13.19
2022-11-24T14:00:08.171Z,13.47
2022-11-24T14:03:27.117Z,14.43
2022-11-24T14:06:55.106Z,14.19
2022-11-24T14:09:57.926Z,13.19
2022-11-24T14:13:37.086Z,13.62
2022-11-24T14:16:45.892Z,13.30
2022-11-24T14:19:57.146Z,12.40
2022-11-24T14:23:17.094Z,13.98
2022-11-24T14:26:32.634Z,13.44
2022-11-24T14:30:02.176Z,11.60
2022-11-24T14:33:18.093Z,12.60
2022-11-24T14:36:33.113Z,12.87
2022-11-24T14:39:42.985Z,12.80
2022-11-24T14:42:57.058Z,13.89
2022-11-24T14:46:09.765Z,13.26
2022-11-24T14:49:25.066Z,13.54
2022-11-24T14:52:41.082Z,13.06
2022-11-24T14:55:43.214Z,12.57
2022-11-24T14:58:59.317Z,13.34
2022-11-24T15:02:34.173Z,13.49
2022-11-24T15:06:01.038Z,13.08
2022-11-24T15:09:29.080Z,13.47
2022-11-24T15:12:55.109Z,12.44
2022-11-24T15:16:03.181Z,13.38
2022-11-24T15:19:23.138Z,12.92
2022-11-24T15:22:45.858Z,11.54
2022-11-24T15:26:03.063Z,11.59
2022-11-24T15:29:12.945Z,10.97
2022-11-24T15:32:22.086Z,11.10
2022-11-24T15:35:32.728Z,10.61
2022-11-24T15:38:41.239Z,10.33
2022-11-24T15:41:56.116Z,9.89
2022-11-24T15:44:57.987Z,10.86
2022-11-24T15:48:17.759Z,10.88
2022-11-24T15:51:27.150Z,9.82
2022-11-24T15:54:35.926Z,11.05
2022-11-24T15:57:44.057Z,10.54
2022-11-24T16:00:52.745Z,9.30
2022-11-24T16:04:08.090Z,8.40
2022-11-24T16:07:19.127Z,7.82
2022-11-24T16:10:38.090Z,7.63
2022-11-24T16:13:40.255Z,7.46
2022-11-24T16:16:55.081Z,7.35
2022-11-24T16:20:03.166Z,7.36
2022-11-24T16:23:18.187Z,7.21
2022-11-24T16:26:33.155Z,7.26
2022-11-24T16:29:38.327Z,7.25
2022-11-24T16:32:53.105Z,7.30
2022-11-24T16:36:01.164Z,7.13
2022-11-24T16:39:09.818Z,7.14
2022-11-24T16:42:18.537Z,7.11
2022-11-24T16:45:38.466Z,7.17
2022-11-24T16:48:51.420Z,7.13
2022-11-24T16:52:00.094Z,7.10
2022-11-24T16:55:09.155Z,7.05
2022-11-24T16:58:25.105Z,7.03
2022-11-24T17:01:27.277Z,6.93
2022-11-24T17:04:42.143Z,6.96
2022-11-24T17:07:50.443Z,6.96
2022-11-24T17:11:11.401Z,6.94
2022-11-24T17:14:26.190Z,6.86
2022-11-24T17:17:28.238Z,6.86
2022-11-24T17:20:43.160Z,6.86
2022-11-24T17:23:45.340Z,6.80
2022-11-24T17:27:00.131Z,6.80
2022-11-24T17:30:08.121Z,6.76
2022-11-24T17:33:16.762Z,6.83
2022-11-24T17:36:32.124Z,6.78
2022-11-24T17:39:34.002Z,6.74
2022-11-24T17:42:49.286Z,6.73
2022-11-24T17:46:01.340Z,6.72
2022-11-24T17:49:16.210Z,6.76
2022-11-24T17:52:18.126Z,6.70
2022-11-24T17:55:33.202Z,6.72
2022-11-24T17:58:41.323Z,6.67
2022-11-24T18:01:58.299Z,6.67
2022-11-24T18:05:07.174Z,6.64
2022-11-24T18:08:29.193Z,6.62
2022-11-24T18:11:38.200Z,6.60
2022-11-24T18:14:53.297Z,6.56
2022-11-24T18:18:02.234Z,6.52
2022-11-24T18:21:16.321Z,6.51
2022-11-24T18:24:25.158Z,6.46
2022-11-24T18:27:33.747Z,6.44
2022-11-24T18:30:43.186Z,6.44
2022-11-24T18:33:51.805Z,6.46
2022-11-24T18:37:00.167Z,6.39
2022-11-24T18:40:16.204Z,6.35
2022-11-24T18:43:17.963Z,6.35
2022-11-24T18:46:33.237Z,6.33
2022-11-24T18:49:35.272Z,6.38
2022-11-24T18:52:57.197Z,6.31
2022-11-24T18:56:13.158Z,6.38
2022-11-24T18:59:21.277Z,6.30
2022-11-24T19:02:29.946Z,6.31
2022-11-24T19:05:47.237Z,6.32
2022-11-24T19:09:04.225Z,6.27
2022-11-24T19:12:13.797Z,6.30
2022-11-24T19:15:22.165Z,6.33
2022-11-24T19:18:30.934Z,6.32
2022-11-24T19:21:42.192Z,6.31
2022-11-24T19:24:50.814Z,6.26
2022-11-24T19:27:59.196Z,6.36
2022-11-24T19:31:10.905Z,6.32
2022-11-24T19:34:19.169Z,6.21
2022-11-24T19:37:28.546Z,6.20
2022-11-24T19:40:37.199Z,6.22
2022-11-24T19:43:53.182Z,6.19
2022-11-24T19:47:01.155Z,6.22
2022-11-24T19:50:17.195Z,6.17
2022-11-24T19:53:19.046Z,6.18
2022-11-24T19:56:37.230Z,6.24
2022-11-24T19:59:52.198Z,6.18
2022-11-24T20:03:01.311Z,6.23
2022-11-24T20:06:23.268Z,6.14
2022-11-24T20:09:38.238Z,6.20
2022-11-24T20:12:53.193Z,6.20
2022-11-24T20:16:01.322Z,6.14
2022-11-24T20:19:12.481Z,6.03
2022-11-24T20:22:21.213Z,6.10
2022-11-24T20:25:36.242Z,6.11
2022-11-24T20:28:38.399Z,6.10
2022-11-24T20:31:56.234Z,6.13
2022-11-24T20:34:57.986Z,6.14
2022-11-24T20:38:15.222Z,6.13
2022-11-24T20:41:27.629Z,6.10
2022-11-24T20:44:42.215Z,6.18
2022-11-24T20:47:44.061Z,6.26
2022-11-24T20:50:59.185Z,6.20
2022-11-24T20:54:04.642Z,6.21
2022-11-24T20:57:19.478Z,6.22
2022-11-24T21:00:21.742Z,6.19
2022-11-24T21:03:39.800Z,6.19
2022-11-24T21:06:51.741Z,6.26
2022-11-24T21:10:06.261Z,6.27
2022-11-24T21:13:08.374Z,6.28
2022-11-24T21:16:26.276Z,6.24
2022-11-24T21:19:36.017Z,6.21
2022-11-24T21:22:51.228Z,6.25
2022-11-24T21:25:52.967Z,6.27
2022-11-24T21:29:07.232Z,6.33
2022-11-24T21:32:15.222Z,6.41
2022-11-24T21:35:23.789Z,6.34
2022-11-24T21:38:39.201Z,6.32
2022-11-24T21:41:48.245Z,6.29
2022-11-24T21:45:03.218Z,6.19
2022-11-24T21:48:05.581Z,6.13
2022-11-24T21:51:22.263Z,6.13
2022-11-24T21:54:39.626Z,6.19
2022-11-24T21:57:48.214Z,6.18
2022-11-24T22:01:06.604Z,6.11
2022-11-24T22:04:21.251Z,5.76
2022-11-24T22:07:32.060Z,6.12
2022-11-24T22:10:48.286Z,6.07
2022-11-24T22:13:52.126Z,6.06
2022-11-24T22:17:07.262Z,6.07
2022-11-24T22:20:22.335Z,6.07
2022-11-24T22:23:31.357Z,6.08
2022-11-24T22:26:46.366Z,6.09
2022-11-24T22:29:54.425Z,6.06
2022-11-24T22:33:02.874Z,6.05
2022-11-24T22:36:11.257Z,6.01
2022-11-24T22:39:35.266Z,6.03
2022-11-24T22:42:43.254Z,6.03
2022-11-24T22:45:54.892Z,5.89
2022-11-24T22:49:09.226Z,5.95
2022-11-24T22:52:17.305Z,6.08
2022-11-24T22:55:25.937Z,6.12
2022-11-24T22:58:34.214Z,6.10
2022-11-24T23:01:49.297Z,6.01
2022-11-24T23:04:57.327Z,6.01
2022-11-24T23:08:12.558Z,5.96
2022-11-24T23:11:29.128Z,6.00
2022-11-24T23:14:46.283Z,5.96
2022-11-24T23:17:50.289Z,6.05
2022-11-24T23:21:18.382Z,5.96
2022-11-24T23:24:26.894Z,6.06
2022-11-24T23:27:41.273Z,6.02
2022-11-24T23:30:43.455Z,6.03
2022-11-24T23:33:58.278Z,6.06
2022-11-24T23:37:06.287Z,6.02
2022-11-24T23:40:21.334Z,5.90
2022-11-24T23:43:23.689Z,5.92
2022-11-24T23:46:38.293Z,5.96
2022-11-24T23:49:42.183Z,5.91
2022-11-24T23:52:57.347Z,5.89
2022-11-24T23:55:59.217Z,5.94
2022-11-24T23:59:17.357Z,5.90
